createdAt,value
2023-06-20T00:01:18.332Z,16.92
2023-06-20T00:03:46.910Z,13.05
2023-06-20T00:06:13.968Z,15.02
2023-06-20T00:08:41.046Z,14.95
2023-06-20T00:11:08.125Z,14.23
2023-06-20T00:13:35.504Z,18.63
2023-06-20T00:16:02.483Z,4.78
2023-06-20T00:18:30.671Z,10.55
2023-06-20T00:20:59.234Z,18.35
2023-06-20T00:23:26.291Z,13.70
2023-06-20T00:25:53.456Z,12.02
2023-06-20T00:28:20.424Z,12.30
2023-06-20T00:30:47.490Z,10.32
2023-06-20T00:33:15.112Z,13.73
2023-06-20T00:35:42.231Z,11.65
2023-06-20T00:38:10.632Z,13.07
2023-06-20T00:40:37.672Z,15.10
2023-06-20T00:43:05.200Z,9.10
2023-06-20T00:45:36.477Z,14.85
2023-06-20T00:48:06.615Z,14.27
2023-06-20T00:50:34.476Z,11.98
2023-06-20T00:53:02.890Z,3.53
2023-06-20T00:55:32.786Z,14.82
2023-06-20T00:58:00.652Z,11.98
2023-06-20T01:00:34.185Z,8.48
2023-06-20T01:03:05.478Z,5.20
2023-06-20T01:05:32.926Z,15.13
2023-06-20T01:08:09.764Z,21.08
2023-06-20T01:10:48.991Z,12.95
2023-06-20T01:13:24.256Z,9.93
2023-06-20T01:16:00.305Z,10.25
2023-06-20T01:18:37.904Z,13.50
2023-06-20T01:21:09.123Z,7.93
2023-06-20T01:23:42.812Z,8.43
2023-06-20T01:26:12.870Z,17.58
2023-06-20T01:28:43.025Z,11.90
2023-06-20T01:31:12.846Z,8.13
2023-06-20T01:33:48.919Z,6.05
2023-06-20T01:36:19.523Z,12.40
2023-06-20T01:38:51.057Z,4.20
2023-06-20T01:41:22.393Z,12.57
2023-06-20T01:43:56.406Z,6.43
2023-06-20T01:46:25.449Z,14.95
2023-06-20T01:48:54.281Z,4.63
2023-06-20T01:51:22.265Z,10.82
2023-06-20T01:53:51.570Z,7.97
2023-06-20T01:56:20.048Z,13.57
2023-06-20T01:58:48.669Z,12.75
2023-06-20T02:01:17.523Z,13.45
2023-06-20T02:03:45.884Z,11.25
2023-06-20T02:06:14.738Z,10.85
2023-06-20T02:08:41.885Z,8.23
2023-06-20T02:11:10.701Z,8.02
2023-06-20T02:13:38.085Z,9.57
2023-06-20T02:16:08.866Z,9.23
2023-06-20T02:18:38.163Z,8.65
2023-06-20T02:21:07.638Z,10.02
2023-06-20T02:23:36.410Z,12.00
2023-06-20T02:26:09.589Z,12.27
2023-06-20T02:28:41.946Z,8.65
2023-06-20T02:31:13.836Z,11.75
2023-06-20T02:33:43.129Z,12.77
2023-06-20T02:36:11.261Z,36.35
2023-06-20T02:38:38.505Z,42.22
2023-06-20T02:41:06.313Z,18.98
2023-06-20T02:43:33.336Z,13.48
2023-06-20T02:46:09.751Z,4.70
2023-06-20T02:48:43.265Z,7.93
2023-06-20T02:51:16.887Z,4.35
2023-06-20T02:53:51.670Z,3.70
2023-06-20T02:56:19.190Z,10.65
2023-06-20T02:58:53.376Z,10.75
2023-06-20T03:01:25.090Z,7.23
2023-06-20T03:03:56.875Z,5.80
2023-06-20T03:06:30.797Z,10.45
2023-06-20T03:09:01.606Z,6.90
2023-06-20T03:11:30.220Z,3.20
2023-06-20T03:14:00.324Z,9.23
2023-06-20T03:16:29.182Z,7.25
2023-06-20T03:18:56.931Z,7.50
2023-06-20T03:21:29.429Z,9.85
2023-06-20T03:24:00.625Z,5.45
2023-06-20T03:26:27.758Z,4.55
2023-06-20T03:28:54.917Z,9.77
2023-06-20T03:31:24.949Z,12.07
2023-06-20T03:33:53.482Z,6.45
2023-06-20T03:36:21.056Z,4.03
2023-06-20T03:38:48.786Z,12.60
2023-06-20T03:41:18.823Z,11.55
2023-06-20T03:43:48.742Z,16.23
2023-06-20T03:46:16.546Z,10.27
2023-06-20T03:48:43.558Z,13.55
2023-06-20T03:51:12.034Z,14.05
2023-06-20T03:53:39.012Z,13.68
2023-06-20T03:56:06.042Z,12.07
2023-06-20T03:58:34.583Z,17.77
2023-06-20T04:01:01.646Z,13.30
2023-06-20T04:03:30.264Z,11.90
2023-06-20T04:06:02.253Z,8.15
2023-06-20T04:08:31.264Z,25.80
2023-06-20T04:11:00.726Z,18.40
2023-06-20T04:13:28.290Z,22.65
2023-06-20T04:15:55.514Z,38.40
2023-06-20T04:18:22.524Z,23.60
2023-06-20T04:20:50.018Z,25.52
2023-06-20T04:23:17.023Z,18.73
2023-06-20T04:25:46.609Z,28.05
2023-06-20T04:28:13.622Z,19.77
2023-06-20T04:30:52.073Z,14.55
2023-06-20T04:33:20.375Z,23.60
2023-06-20T04:35:47.870Z,17.35
2023-06-20T04:38:16.211Z,17.52
2023-06-20T04:40:44.125Z,18.75
2023-06-20T04:43:12.471Z,18.02
2023-06-20T04:45:39.752Z,9.10
2023-06-20T04:48:07.079Z,8.90
2023-06-20T04:50:34.821Z,14.25
2023-06-20T04:53:02.327Z,14.70
2023-06-20T04:55:29.324Z,11.00
2023-06-20T04:57:57.916Z,20.58
2023-06-20T05:00:28.527Z,16.52
2023-06-20T05:03:00.082Z,13.50
2023-06-20T05:05:30.586Z,10.27
2023-06-20T05:07:58.035Z,12.77
2023-06-20T05:10:25.775Z,17.25
2023-06-20T05:12:52.959Z,13.65
2023-06-20T05:15:24.855Z,8.25
2023-06-20T05:17:56.423Z,11.60
2023-06-20T05:20:23.669Z,18.60
2023-06-20T05:22:51.247Z,19.90
2023-06-20T05:25:18.476Z,10.00
2023-06-20T05:27:45.634Z,18.05
2023-06-20T05:30:15.605Z,14.93
2023-06-20T05:32:44.754Z,12.48
2023-06-20T05:35:13.592Z,10.45
2023-06-20T05:37:40.911Z,12.25
2023-06-20T05:40:08.983Z,13.52
2023-06-20T05:42:35.965Z,11.80
2023-06-20T05:45:03.258Z,9.93
2023-06-20T05:47:30.439Z,11.98
2023-06-20T05:49:58.686Z,17.60
2023-06-20T05:52:27.390Z,9.82
2023-06-20T05:54:55.118Z,12.50
2023-06-20T05:57:22.350Z,17.00
2023-06-20T05:59:49.325Z,12.80
2023-06-20T06:02:17.176Z,9.32
2023-06-20T06:04:46.038Z,13.68
2023-06-20T06:07:13.281Z,17.63
2023-06-20T06:09:41.873Z,18.20
2023-06-20T06:12:09.823Z,16.25
2023-06-20T06:14:36.839Z,14.45
2023-06-20T06:17:04.199Z,10.38
2023-06-20T06:19:31.292Z,16.83
2023-06-20T06:22:01.087Z,14.60
2023-06-20T06:24:31.032Z,15.55
2023-06-20T06:26:59.472Z,13.75
2023-06-20T06:29:28.179Z,10.20
2023-06-20T06:31:56.953Z,10.15
2023-06-20T06:34:23.969Z,13.07
2023-06-20T06:36:51.322Z,10.30
2023-06-20T06:39:20.699Z,11.93
2023-06-20T06:41:50.581Z,11.75
2023-06-20T06:44:19.799Z,9.23
2023-06-20T06:46:49.231Z,10.18
2023-06-20T06:49:17.390Z,12.23
2023-06-20T06:51:44.455Z,11.07
2023-06-20T06:54:11.544Z,9.25
2023-06-20T06:56:38.599Z,9.98
2023-06-20T06:59:05.588Z,10.13
2023-06-20T07:01:34.436Z,13.43
2023-06-20T07:04:01.541Z,9.15
2023-06-20T07:06:31.252Z,12.52
2023-06-20T07:08:58.234Z,9.23
2023-06-20T07:11:25.684Z,8.90
2023-06-20T07:13:52.738Z,11.25
2023-06-20T07:16:19.757Z,8.07
2023-06-20T07:18:48.169Z,11.02
2023-06-20T07:21:15.798Z,12.73
2023-06-20T07:23:42.779Z,7.47
2023-06-20T07:26:10.074Z,13.13
2023-06-20T07:28:37.397Z,10.63
2023-06-20T07:31:07.283Z,7.82
2023-06-20T07:33:36.915Z,8.82
2023-06-20T07:36:08.395Z,9.82
2023-06-20T07:38:35.412Z,9.55
2023-06-20T07:41:02.430Z,11.20
2023-06-20T07:43:29.403Z,11.13
2023-06-20T07:45:56.453Z,5.93
2023-06-20T07:48:24.723Z,6.50
2023-06-20T07:50:51.821Z,9.18
2023-06-20T07:53:20.704Z,7.78
2023-06-20T07:55:47.709Z,12.90
2023-06-20T07:58:14.677Z,6.05
2023-06-20T08:00:41.987Z,11.02
2023-06-20T08:03:09.398Z,9.27
2023-06-20T08:05:36.535Z,7.50
2023-06-20T08:08:06.202Z,18.52
2023-06-20T08:10:35.122Z,9.43
2023-06-20T08:13:02.281Z,9.60
2023-06-20T08:15:29.333Z,8.27
2023-06-20T08:17:56.735Z,7.30
2023-06-20T08:20:23.771Z,10.25
2023-06-20T08:22:50.843Z,7.07
2023-06-20T08:25:17.806Z,7.75
2023-06-20T08:27:46.157Z,15.35
2023-06-20T08:30:13.847Z,9.70
2023-06-20T08:32:43.501Z,4.88
2023-06-20T08:35:12.920Z,5.40
2023-06-20T08:37:39.953Z,5.80
2023-06-20T08:40:10.270Z,4.93
2023-06-20T08:42:37.293Z,8.88
2023-06-20T08:45:07.060Z,6.93
2023-06-20T08:47:34.493Z,6.25
2023-06-20T08:50:01.754Z,6.22
2023-06-20T08:52:30.798Z,7.78
2023-06-20T08:54:58.415Z,7.35
2023-06-20T08:57:25.677Z,7.40
2023-06-20T08:59:54.694Z,6.18
2023-06-20T09:02:23.975Z,10.48
2023-06-20T09:05:02.355Z,8.88
2023-06-20T09:07:35.692Z,7.43
2023-06-20T09:10:03.080Z,7.93
2023-06-20T09:12:33.111Z,11.50
2023-06-20T09:15:00.200Z,9.13
2023-06-20T09:17:28.638Z,8.43
2023-06-20T09:19:58.386Z,8.88
2023-06-20T09:22:27.054Z,10.50
2023-06-20T09:24:54.040Z,6.97
2023-06-20T09:27:22.507Z,6.47
2023-06-20T09:29:51.250Z,10.68
2023-06-20T09:32:22.402Z,10.10
2023-06-20T09:34:51.708Z,15.00
2023-06-20T09:37:19.266Z,5.93
2023-06-20T09:39:49.196Z,6.32
2023-06-20T09:42:16.217Z,5.88
2023-06-20T09:44:43.304Z,7.75
2023-06-20T09:47:10.840Z,6.20
2023-06-20T09:49:41.264Z,7.93
2023-06-20T09:52:16.140Z,5.57
2023-06-20T09:54:47.200Z,5.53
2023-06-20T09:57:19.957Z,7.22
2023-06-20T09:59:51.077Z,5.45
2023-06-20T10:02:21.604Z,5.60
2023-06-20T10:04:49.356Z,8.80
2023-06-20T10:07:18.019Z,6.18
2023-06-20T10:09:46.872Z,7.95
2023-06-20T10:12:14.225Z,5.57
2023-06-20T10:14:42.314Z,5.43
2023-06-20T10:17:10.492Z,5.95
2023-06-20T10:19:47.663Z,6.70
2023-06-20T10:22:14.749Z,7.57
2023-06-20T10:24:43.314Z,9.35
2023-06-20T10:27:10.570Z,4.82
2023-06-20T10:29:42.188Z,9.50
2023-06-20T10:32:10.771Z,5.07
2023-06-20T10:34:39.749Z,5.13
2023-06-20T10:37:14.676Z,5.13
2023-06-20T10:39:53.435Z,4.55
2023-06-20T10:42:47.449Z,3.72
2023-06-20T10:45:23.592Z,3.80
2023-06-20T10:47:51.729Z,4.13
2023-06-20T10:50:19.350Z,7.03
2023-06-20T10:52:49.640Z,4.25
2023-06-20T10:55:23.598Z,7.25
2023-06-20T10:57:54.251Z,5.18
2023-06-20T11:00:23.333Z,7.38
2023-06-20T11:02:55.239Z,7.78
2023-06-20T11:05:26.228Z,4.13
2023-06-20T11:07:55.221Z,5.82
2023-06-20T11:10:28.825Z,4.13
2023-06-20T11:12:56.679Z,6.57
2023-06-20T11:15:26.647Z,5.65
2023-06-20T11:17:54.919Z,4.28
2023-06-20T11:20:23.761Z,4.72
2023-06-20T11:22:55.110Z,3.58
2023-06-20T11:25:29.517Z,5.18
2023-06-20T11:28:04.497Z,3.90
2023-06-20T11:30:33.107Z,7.30
2023-06-20T11:33:04.788Z,5.45
2023-06-20T11:35:46.666Z,4.30
2023-06-20T11:38:15.304Z,3.47
2023-06-20T11:40:45.217Z,5.57
2023-06-20T11:43:23.781Z,3.38
2023-06-20T11:45:51.223Z,3.50
2023-06-20T11:48:19.678Z,3.55
2023-06-20T11:50:55.588Z,3.40
2023-06-20T11:53:26.362Z,4.43
2023-06-20T11:55:56.812Z,4.50
2023-06-20T11:58:26.076Z,6.00
2023-06-20T12:01:01.916Z,5.38
2023-06-20T12:03:28.882Z,5.78
2023-06-20T12:05:58.142Z,3.70
2023-06-20T12:08:26.262Z,5.03
2023-06-20T12:11:03.103Z,3.10
2023-06-20T12:13:34.538Z,5.43
2023-06-20T12:16:02.574Z,5.57
2023-06-20T12:18:29.560Z,3.35
2023-06-20T12:21:03.406Z,3.40
2023-06-20T12:23:31.701Z,3.60
2023-06-20T12:26:01.606Z,4.53
2023-06-20T12:28:31.180Z,4.15
2023-06-20T12:31:00.538Z,3.40
2023-06-20T12:33:27.545Z,7.45
2023-06-20T12:35:54.521Z,5.55
2023-06-20T12:38:21.555Z,3.42
2023-06-20T12:40:48.553Z,4.82
2023-06-20T12:43:15.537Z,2.97
2023-06-20T12:45:47.250Z,5.55
2023-06-20T12:48:16.523Z,3.85
2023-06-20T12:50:43.648Z,3.88
2023-06-20T12:53:10.913Z,5.90
2023-06-20T12:55:38.838Z,3.40
2023-06-20T12:58:05.958Z,2.97
2023-06-20T13:00:35.022Z,3.40
2023-06-20T13:03:04.080Z,8.32
2023-06-20T13:05:31.143Z,3.58
2023-06-20T13:07:58.217Z,3.40
2023-06-20T13:10:25.483Z,3.47
2023-06-20T13:12:52.929Z,7.20
2023-06-20T13:15:21.606Z,7.78
2023-06-20T13:17:49.420Z,2.85
2023-06-20T13:20:19.796Z,5.15
2023-06-20T13:22:46.731Z,4.55
2023-06-20T13:25:13.825Z,2.47
2023-06-20T13:27:40.864Z,10.75
2023-06-20T13:30:09.074Z,2.92
2023-06-20T13:32:37.757Z,3.08
2023-06-20T13:35:08.296Z,3.08
2023-06-20T13:37:38.375Z,4.70
2023-06-20T13:40:09.163Z,2.92
2023-06-20T13:42:37.014Z,3.10
2023-06-20T13:45:05.396Z,4.32
2023-06-20T13:47:32.912Z,3.13
2023-06-20T13:49:59.983Z,3.22
2023-06-20T13:52:27.002Z,8.52
2023-06-20T13:54:55.324Z,3.47
2023-06-20T13:57:22.277Z,8.05
2023-06-20T13:59:49.343Z,3.50
2023-06-20T14:02:16.428Z,5.10
2023-06-20T14:04:44.975Z,3.42
2023-06-20T14:07:12.430Z,5.63
2023-06-20T14:09:39.444Z,6.07
2023-06-20T14:12:09.574Z,4.32
2023-06-20T14:14:36.591Z,3.90
2023-06-20T14:17:04.074Z,5.32
2023-06-20T14:19:33.423Z,4.18
2023-06-20T14:22:00.444Z,4.40
2023-06-20T14:24:28.129Z,6.43
2023-06-20T14:26:56.258Z,4.68
2023-06-20T14:29:24.655Z,6.70
2023-06-20T14:31:51.739Z,4.00
2023-06-20T14:34:18.704Z,5.05
2023-06-20T14:36:46.295Z,6.07
2023-06-20T14:39:14.428Z,4.60
2023-06-20T14:41:42.009Z,5.18
2023-06-20T14:44:09.095Z,4.22
2023-06-20T14:46:38.225Z,5.13
2023-06-20T14:49:05.277Z,4.30
2023-06-20T14:51:32.256Z,4.78
2023-06-20T14:53:59.401Z,5.05
2023-06-20T14:56:26.700Z,5.72
2023-06-20T14:58:53.707Z,6.38
2023-06-20T15:01:21.163Z,5.15
2023-06-20T15:03:49.534Z,7.50
2023-06-20T15:06:16.871Z,5.78
2023-06-20T15:08:43.894Z,6.90
2023-06-20T15:11:10.870Z,6.05
2023-06-20T15:13:37.873Z,3.75
2023-06-20T15:16:05.143Z,4.05
2023-06-20T15:18:32.579Z,4.80
2023-06-20T15:21:00.960Z,5.15
2023-06-20T15:23:28.008Z,4.03
2023-06-20T15:25:54.965Z,8.60
2023-06-20T15:28:21.915Z,4.40
2023-06-20T15:30:48.942Z,4.75
2023-06-20T15:33:16.026Z,4.93
2023-06-20T15:35:45.786Z,5.50
2023-06-20T15:38:14.293Z,4.63
2023-06-20T15:40:41.963Z,4.93
2023-06-20T15:43:09.115Z,7.90
2023-06-20T15:45:36.972Z,6.65
2023-06-20T15:48:04.332Z,5.25
2023-06-20T15:50:31.571Z,11.35
2023-06-20T15:52:58.572Z,6.68
2023-06-20T15:55:26.920Z,4.72
2023-06-20T15:57:53.912Z,6.97
2023-06-20T16:00:21.280Z,4.60
2023-06-20T16:02:48.702Z,5.70
2023-06-20T16:05:16.022Z,7.00
2023-06-20T16:07:43.121Z,7.38
2023-06-20T16:10:10.594Z,7.78
2023-06-20T16:12:39.438Z,5.18
2023-06-20T16:15:07.675Z,8.27
2023-06-20T16:17:34.906Z,9.80
2023-06-20T16:20:02.131Z,18.20
2023-06-20T16:22:29.285Z,19.13
2023-06-20T16:24:57.559Z,18.42
2023-06-20T16:27:24.581Z,14.90
2023-06-20T16:29:53.207Z,12.30
2023-06-20T16:32:20.246Z,6.20
2023-06-20T16:34:47.371Z,5.20
2023-06-20T16:37:14.331Z,9.30
2023-06-20T16:39:43.054Z,8.73
2023-06-20T16:42:10.357Z,6.47
2023-06-20T16:44:37.376Z,12.02
2023-06-20T16:47:06.690Z,8.80
2023-06-20T16:49:35.363Z,10.02
2023-06-20T16:52:02.508Z,7.45
2023-06-20T16:54:29.604Z,9.60
2023-06-20T16:56:56.933Z,21.20
2023-06-20T16:59:24.010Z,20.80
2023-06-20T17:01:50.990Z,13.18
2023-06-20T17:04:22.306Z,9.70
2023-06-20T17:06:49.860Z,6.03
2023-06-20T17:09:16.893Z,7.57
2023-06-20T17:11:44.071Z,11.50
2023-06-20T17:14:11.560Z,9.77
2023-06-20T17:16:38.668Z,8.70
2023-06-20T17:19:05.715Z,10.98
2023-06-20T17:21:34.284Z,8.50
2023-06-20T17:24:04.250Z,7.88
2023-06-20T17:26:34.501Z,14.80
2023-06-20T17:29:02.767Z,8.95
2023-06-20T17:31:29.875Z,11.65
2023-06-20T17:33:56.933Z,12.05
2023-06-20T17:36:23.878Z,8.93
2023-06-20T17:38:54.049Z,9.02
2023-06-20T17:41:21.078Z,12.90
2023-06-20T17:43:48.152Z,11.43
2023-06-20T17:46:15.207Z,9.75
2023-06-20T17:48:42.784Z,14.38
2023-06-20T17:51:10.130Z,9.05
2023-06-20T17:53:39.600Z,9.63
2023-06-20T17:56:07.944Z,13.63
2023-06-20T17:58:36.500Z,7.80
2023-06-20T18:01:03.870Z,8.70
2023-06-20T18:03:31.236Z,7.18
2023-06-20T18:05:58.305Z,10.40
2023-06-20T18:08:25.322Z,12.07
2023-06-20T18:10:53.548Z,11.30
2023-06-20T18:13:24.437Z,6.05
2023-06-20T18:15:53.880Z,8.90
2023-06-20T18:18:21.678Z,7.80
2023-06-20T18:20:48.723Z,9.68
2023-06-20T18:23:16.095Z,7.50
2023-06-20T18:25:43.137Z,8.57
2023-06-20T18:28:10.110Z,9.98
2023-06-20T18:30:39.284Z,8.10
2023-06-20T18:33:07.986Z,7.47
2023-06-20T18:35:35.047Z,7.28
2023-06-20T18:38:04.187Z,11.70
2023-06-20T18:40:31.255Z,8.98
2023-06-20T18:43:09.381Z,14.52
2023-06-20T18:45:36.491Z,7.43
2023-06-20T18:48:07.888Z,9.02
2023-06-20T18:50:35.981Z,9.77
2023-06-20T18:53:03.011Z,11.23
2023-06-20T18:55:30.066Z,10.48
2023-06-20T18:57:57.620Z,10.88
2023-06-20T19:00:25.101Z,11.77
2023-06-20T19:02:53.443Z,7.80
2023-06-20T19:05:23.083Z,9.13
2023-06-20T19:07:51.977Z,8.13
2023-06-20T19:10:18.943Z,11.18
2023-06-20T19:12:45.919Z,7.40
2023-06-20T19:15:12.923Z,8.70
2023-06-20T19:17:42.348Z,11.80
2023-06-20T19:20:10.673Z,11.27
2023-06-20T19:22:40.007Z,10.73
2023-06-20T19:25:07.523Z,17.73
2023-06-20T19:27:36.617Z,16.17
2023-06-20T19:30:04.467Z,13.27
2023-06-20T19:32:32.383Z,7.70
2023-06-20T19:34:59.465Z,11.30
2023-06-20T19:37:26.547Z,10.70
2023-06-20T19:39:54.957Z,9.73
2023-06-20T19:42:24.188Z,8.85
2023-06-20T19:44:51.294Z,8.07
2023-06-20T19:47:19.933Z,10.52
2023-06-20T19:49:46.981Z,10.90
2023-06-20T19:52:16.646Z,9.35
2023-06-20T19:54:44.392Z,7.25
2023-06-20T19:57:12.843Z,10.05
2023-06-20T19:59:40.708Z,9.38
2023-06-20T20:02:10.170Z,8.48
2023-06-20T20:04:37.470Z,10.02
2023-06-20T20:07:05.048Z,13.68
2023-06-20T20:09:32.102Z,9.23
2023-06-20T20:12:01.709Z,9.63
2023-06-20T20:14:31.921Z,13.40
2023-06-20T20:17:00.064Z,10.48
2023-06-20T20:19:29.805Z,10.05
2023-06-20T20:21:57.072Z,12.32
2023-06-20T20:24:24.083Z,13.45
2023-06-20T20:26:53.816Z,10.93
2023-06-20T20:29:21.104Z,10.75
2023-06-20T20:31:52.934Z,13.63
2023-06-20T20:34:22.265Z,16.25
2023-06-20T20:36:50.430Z,10.60
2023-06-20T20:39:17.429Z,8.32
2023-06-20T20:41:45.881Z,10.55
2023-06-20T20:44:15.680Z,15.85
2023-06-20T20:46:45.596Z,8.52
2023-06-20T20:49:13.975Z,9.50
2023-06-20T20:51:40.969Z,10.93
2023-06-20T20:54:08.072Z,14.85
2023-06-20T20:56:35.130Z,11.68
2023-06-20T20:59:05.246Z,7.88
2023-06-20T21:01:32.381Z,11.35
2023-06-20T21:03:59.480Z,8.25
2023-06-20T21:06:28.388Z,14.07
2023-06-20T21:08:55.416Z,15.90
2023-06-20T21:11:22.926Z,17.42
2023-06-20T21:13:50.614Z,15.55
2023-06-20T21:16:17.663Z,13.25
2023-06-20T21:18:44.680Z,20.55
2023-06-20T21:21:11.937Z,15.73
2023-06-20T21:23:40.326Z,16.50
2023-06-20T21:26:07.480Z,13.35
2023-06-20T21:28:34.724Z,9.00
2023-06-20T21:31:03.787Z,10.65
2023-06-20T21:33:32.716Z,9.80
2023-06-20T21:36:01.300Z,18.85
2023-06-20T21:38:28.828Z,14.05
2023-06-20T21:40:57.281Z,8.55
2023-06-20T21:43:24.585Z,13.35
2023-06-20T21:45:52.327Z,15.85
2023-06-20T21:48:19.509Z,15.00
2023-06-20T21:50:46.627Z,13.05
2023-06-20T21:53:13.684Z,8.95
2023-06-20T21:55:40.920Z,11.60
2023-06-20T21:58:09.932Z,11.73
2023-06-20T22:00:37.053Z,10.23
2023-06-20T22:03:04.810Z,18.33
2023-06-20T22:05:31.915Z,11.52
2023-06-20T22:07:59.002Z,14.32
2023-06-20T22:10:26.478Z,18.42
2023-06-20T22:12:54.302Z,15.38
2023-06-20T22:15:23.019Z,16.63
2023-06-20T22:17:50.237Z,17.88
2023-06-20T22:20:18.274Z,13.00
2023-06-20T22:22:45.364Z,11.25
2023-06-20T22:25:13.485Z,16.52
2023-06-20T22:27:40.554Z,14.48
2023-06-20T22:30:12.041Z,15.80
2023-06-20T22:32:40.623Z,14.65
2023-06-20T22:35:08.239Z,11.90
2023-06-20T22:37:35.313Z,10.75
2023-06-20T22:40:03.027Z,16.45
2023-06-20T22:42:30.149Z,13.52
2023-06-20T22:44:57.424Z,10.20
2023-06-20T22:47:24.464Z,12.13
2023-06-20T22:49:52.893Z,16.77
2023-06-20T22:52:20.832Z,13.48
2023-06-20T22:54:47.999Z,10.18
2023-06-20T22:57:15.072Z,10.55
2023-06-20T22:59:42.084Z,10.43
2023-06-20T23:02:09.269Z,12.00
2023-06-20T23:04:36.253Z,12.63
2023-06-20T23:07:04.958Z,8.75
2023-06-20T23:09:32.420Z,12.82
2023-06-20T23:11:59.979Z,6.50
2023-06-20T23:14:27.226Z,12.82
2023-06-20T23:16:54.295Z,15.98
2023-06-20T23:19:21.351Z,9.98
2023-06-20T23:21:49.155Z,10.98
2023-06-20T23:24:22.920Z,11.63
2023-06-20T23:26:50.197Z,9.23
2023-06-20T23:29:17.154Z,18.58
2023-06-20T23:31:44.278Z,12.00
2023-06-20T23:34:12.534Z,12.30
2023-06-20T23:36:43.993Z,12.90
2023-06-20T23:39:14.299Z,14.80
2023-06-20T23:41:42.773Z,13.77
2023-06-20T23:44:14.226Z,13.90
2023-06-20T23:46:41.485Z,9.98
2023-06-20T23:49:08.605Z,16.13
2023-06-20T23:51:36.591Z,9.52
2023-06-20T23:54:05.912Z,11.25
2023-06-20T23:56:35.463Z,13.20
2023-06-20T23:59:05.576Z,13.93
